sensor_id;sensor_type;location;lat;lon;timestamp;P1;durP1;ratioP1;P2;durP2;ratioP2
691;SDS011;328;50.086;8.576;2022-08-19T00:02:15;12.77;;;11.10;;
691;SDS011;328;50.086;8.576;2022-08-19T00:04:43;13.10;;;10.10;;
691;SDS011;328;50.086;8.576;2022-08-19T00:07:13;14.17;;;11.30;;
691;SDS011;328;50.086;8.576;2022-08-19T00:09:40;13.67;;;11.17;;
691;SDS011;328;50.086;8.576;2022-08-19T00:12:08;15.30;;;11.80;;
691;SDS011;328;50.086;8.576;2022-08-19T00:14:37;14.37;;;10.83;;
691;SDS011;328;50.086;8.576;2022-08-19T00:17:05;12.90;;;10.90;;
691;SDS011;328;50.086;8.576;2022-08-19T00:19:33;11.60;;;10.40;;
691;SDS011;328;50.086;8.576;2022-08-19T00:22:00;12.63;;;10.20;;
691;SDS011;328;50.086;8.576;2022-08-19T00:24:28;11.80;;;10.53;;
691;SDS011;328;50.086;8.576;2022-08-19T00:26:56;15.23;;;11.97;;
691;SDS011;328;50.086;8.576;2022-08-19T00:29:45;13.70;;;11.13;;
691;SDS011;328;50.086;8.576;2022-08-19T00:32:17;12.00;;;10.50;;
691;SDS011;328;50.086;8.576;2022-08-19T00:34:45;13.47;;;10.93;;
691;SDS011;328;50.086;8.576;2022-08-19T00:37:13;11.40;;;10.00;;
691;SDS011;328;50.086;8.576;2022-08-19T00:39:40;12.80;;;9.30;;
691;SDS011;328;50.086;8.576;2022-08-19T00:42:08;12.37;;;11.03;;
691;SDS011;328;50.086;8.576;2022-08-19T00:44:35;12.40;;;10.20;;
691;SDS011;328;50.086;8.576;2022-08-19T00:47:05;11.20;;;9.67;;
691;SDS011;328;50.086;8.576;2022-08-19T00:49:40;10.43;;;9.33;;
691;SDS011;328;50.086;8.576;2022-08-19T00:52:11;13.27;;;10.77;;
691;SDS011;328;50.086;8.576;2022-08-19T00:54:42;11.37;;;10.20;;
691;SDS011;328;50.086;8.576;2022-08-19T00:57:15;10.57;;;9.27;;
691;SDS011;328;50.086;8.576;2022-08-19T00:59:45;11.33;;;9.73;;
691;SDS011;328;50.086;8.576;2022-08-19T01:02:30;10.50;;;8.90;;
691;SDS011;328;50.086;8.576;2022-08-19T01:04:59;12.73;;;9.57;;
691;SDS011;328;50.086;8.576;2022-08-19T01:07:27;10.03;;;9.03;;
691;SDS011;328;50.086;8.576;2022-08-19T01:10:04;11.60;;;10.07;;
691;SDS011;328;50.086;8.576;2022-08-19T01:12:33;11.17;;;9.97;;
691;SDS011;328;50.086;8.576;2022-08-19T01:15:01;9.93;;;8.87;;
691;SDS011;328;50.086;8.576;2022-08-19T01:17:30;11.70;;;9.03;;
691;SDS011;328;50.086;8.576;2022-08-19T01:19:58;11.80;;;8.67;;
691;SDS011;328;50.086;8.576;2022-08-19T01:22:28;10.50;;;8.97;;
691;SDS011;328;50.086;8.576;2022-08-19T01:24:59;9.13;;;8.23;;
691;SDS011;328;50.086;8.576;2022-08-19T01:27:27;11.73;;;9.73;;
691;SDS011;328;50.086;8.576;2022-08-19T01:30:08;8.90;;;8.00;;
691;SDS011;328;50.086;8.576;2022-08-19T01:32:37;8.47;;;7.60;;
691;SDS011;328;50.086;8.576;2022-08-19T01:35:05;9.10;;;7.90;;
691;SDS011;328;50.086;8.576;2022-08-19T01:37:42;9.73;;;8.07;;
691;SDS011;328;50.086;8.576;2022-08-19T01:40:14;9.70;;;8.03;;
691;SDS011;328;50.086;8.576;2022-08-19T01:42:42;8.80;;;7.40;;
691;SDS011;328;50.086;8.576;2022-08-19T01:45:10;8.60;;;7.70;;
691;SDS011;328;50.086;8.576;2022-08-19T01:47:37;9.03;;;7.37;;
691;SDS011;328;50.086;8.576;2022-08-19T01:50:06;7.93;;;7.03;;
691;SDS011;328;50.086;8.576;2022-08-19T01:52:35;7.90;;;7.10;;
691;SDS011;328;50.086;8.576;2022-08-19T01:55:05;8.50;;;7.37;;
691;SDS011;328;50.086;8.576;2022-08-19T01:57:34;8.07;;;7.27;;
691;SDS011;328;50.086;8.576;2022-08-19T02:00:03;9.40;;;7.53;;
691;SDS011;328;50.086;8.576;2022-08-19T02:02:32;7.93;;;7.23;;
691;SDS011;328;50.086;8.576;2022-08-19T02:05:00;8.40;;;7.50;;
691;SDS011;328;50.086;8.576;2022-08-19T02:07:27;8.27;;;7.43;;
691;SDS011;328;50.086;8.576;2022-08-19T02:09:55;12.13;;;8.10;;
691;SDS011;328;50.086;8.576;2022-08-19T02:12:24;8.07;;;6.60;;
691;SDS011;328;50.086;8.576;2022-08-19T02:14:52;8.63;;;7.73;;
691;SDS011;328;50.086;8.576;2022-08-19T02:17:19;8.73;;;7.70;;
691;SDS011;328;50.086;8.576;2022-08-19T02:19:47;7.80;;;6.97;;
691;SDS011;328;50.086;8.576;2022-08-19T02:22:15;8.63;;;7.50;;
691;SDS011;328;50.086;8.576;2022-08-19T02:24:42;7.80;;;7.00;;
691;SDS011;328;50.086;8.576;2022-08-19T02:27:10;8.67;;;7.80;;
691;SDS011;328;50.086;8.576;2022-08-19T02:29:38;8.47;;;7.67;;
691;SDS011;328;50.086;8.576;2022-08-19T02:32:07;7.80;;;7.00;;
691;SDS011;328;50.086;8.576;2022-08-19T02:34:34;8.17;;;6.20;;
691;SDS011;328;50.086;8.576;2022-08-19T02:37:02;10.60;;;7.53;;
691;SDS011;328;50.086;8.576;2022-08-19T02:39:29;7.53;;;6.80;;
691;SDS011;328;50.086;8.576;2022-08-19T02:41:56;8.97;;;7.37;;
691;SDS011;328;50.086;8.576;2022-08-19T02:44:25;8.87;;;7.20;;
691;SDS011;328;50.086;8.576;2022-08-19T02:46:58;7.00;;;6.30;;
691;SDS011;328;50.086;8.576;2022-08-19T02:49:26;7.90;;;6.83;;
691;SDS011;328;50.086;8.576;2022-08-19T02:51:53;8.20;;;7.40;;
691;SDS011;328;50.086;8.576;2022-08-19T02:54:21;7.03;;;6.40;;
691;SDS011;328;50.086;8.576;2022-08-19T02:56:48;7.30;;;6.47;;
691;SDS011;328;50.086;8.576;2022-08-19T02:59:16;6.93;;;6.30;;
691;SDS011;328;50.086;8.576;2022-08-19T03:01:48;8.10;;;6.90;;
691;SDS011;328;50.086;8.576;2022-08-19T03:04:18;8.20;;;7.27;;
691;SDS011;328;50.086;8.576;2022-08-19T03:06:46;6.53;;;5.83;;
691;SDS011;328;50.086;8.576;2022-08-19T03:09:14;6.87;;;5.97;;
691;SDS011;328;50.086;8.576;2022-08-19T03:11:42;6.87;;;6.20;;
691;SDS011;328;50.086;8.576;2022-08-19T03:14:10;8.90;;;7.33;;
691;SDS011;328;50.086;8.576;2022-08-19T03:16:40;8.20;;;7.40;;
691;SDS011;328;50.086;8.576;2022-08-19T03:19:09;7.70;;;6.47;;
691;SDS011;328;50.086;8.576;2022-08-19T03:21:38;8.50;;;7.50;;
691;SDS011;328;50.086;8.576;2022-08-19T03:24:06;7.70;;;6.90;;
691;SDS011;328;50.086;8.576;2022-08-19T03:26:38;8.43;;;7.30;;
691;SDS011;328;50.086;8.576;2022-08-19T03:29:07;8.40;;;7.20;;
691;SDS011;328;50.086;8.576;2022-08-19T03:31:39;8.43;;;7.60;;
691;SDS011;328;50.086;8.576;2022-08-19T03:34:19;8.33;;;7.53;;
691;SDS011;328;50.086;8.576;2022-08-19T03:36:49;9.47;;;7.60;;
691;SDS011;328;50.086;8.576;2022-08-19T03:39:17;9.87;;;8.87;;
691;SDS011;328;50.086;8.576;2022-08-19T03:41:45;9.40;;;7.90;;
691;SDS011;328;50.086;8.576;2022-08-19T03:44:35;8.53;;;7.67;;
691;SDS011;328;50.086;8.576;2022-08-19T03:47:04;9.47;;;8.20;;
691;SDS011;328;50.086;8.576;2022-08-19T03:49:32;10.23;;;9.13;;
691;SDS011;328;50.086;8.576;2022-08-19T03:52:03;9.50;;;7.93;;
691;SDS011;328;50.086;8.576;2022-08-19T03:54:33;10.20;;;9.17;;
691;SDS011;328;50.086;8.576;2022-08-19T03:57:02;9.23;;;8.23;;
691;SDS011;328;50.086;8.576;2022-08-19T03:59:30;9.93;;;7.97;;
691;SDS011;328;50.086;8.576;2022-08-19T04:02:01;9.63;;;8.70;;
691;SDS011;328;50.086;8.576;2022-08-19T04:04:30;11.00;;;8.17;;
691;SDS011;328;50.086;8.576;2022-08-19T04:06:58;9.17;;;8.27;;
691;SDS011;328;50.086;8.576;2022-08-19T04:09:26;9.57;;;8.40;;
691;SDS011;328;50.086;8.576;2022-08-19T04:11:55;10.47;;;9.37;;
691;SDS011;328;50.086;8.576;2022-08-19T04:14:25;9.70;;;8.67;;
691;SDS011;328;50.086;8.576;2022-08-19T04:16:54;9.60;;;8.60;;
691;SDS011;328;50.086;8.576;2022-08-19T04:19:22;8.90;;;8.03;;
691;SDS011;328;50.086;8.576;2022-08-19T04:21:51;8.87;;;7.97;;
691;SDS011;328;50.086;8.576;2022-08-19T04:24:19;10.10;;;9.10;;
691;SDS011;328;50.086;8.576;2022-08-19T04:26:49;10.03;;;9.03;;
691;SDS011;328;50.086;8.576;2022-08-19T04:29:17;9.67;;;8.67;;
691;SDS011;328;50.086;8.576;2022-08-19T04:31:48;9.73;;;8.73;;
691;SDS011;328;50.086;8.576;2022-08-19T04:34:17;10.50;;;8.87;;
691;SDS011;328;50.086;8.576;2022-08-19T04:36:48;9.60;;;8.13;;
691;SDS011;328;50.086;8.576;2022-08-19T04:39:18;9.20;;;8.10;;
691;SDS011;328;50.086;8.576;2022-08-19T04:41:46;9.90;;;8.83;;
691;SDS011;328;50.086;8.576;2022-08-19T04:44:33;10.10;;;9.10;;
691;SDS011;328;50.086;8.576;2022-08-19T04:47:11;10.53;;;8.40;;
691;SDS011;328;50.086;8.576;2022-08-19T04:49:38;9.87;;;8.77;;
691;SDS011;328;50.086;8.576;2022-08-19T04:52:06;10.87;;;8.97;;
691;SDS011;328;50.086;8.576;2022-08-19T04:54:34;11.57;;;9.43;;
691;SDS011;328;50.086;8.576;2022-08-19T04:57:04;9.33;;;8.43;;
691;SDS011;328;50.086;8.576;2022-08-19T04:59:35;10.33;;;9.23;;
691;SDS011;328;50.086;8.576;2022-08-19T05:02:03;8.13;;;7.40;;
691;SDS011;328;50.086;8.576;2022-08-19T05:04:31;9.13;;;8.23;;
691;SDS011;328;50.086;8.576;2022-08-19T05:06:59;9.87;;;8.87;;
691;SDS011;328;50.086;8.576;2022-08-19T05:09:27;9.00;;;8.07;;
691;SDS011;328;50.086;8.576;2022-08-19T05:12:15;9.77;;;8.77;;
691;SDS011;328;50.086;8.576;2022-08-19T05:14:45;10.30;;;8.03;;
691;SDS011;328;50.086;8.576;2022-08-19T05:17:13;9.40;;;8.37;;
691;SDS011;328;50.086;8.576;2022-08-19T05:20:01;10.40;;;7.97;;
691;SDS011;328;50.086;8.576;2022-08-19T05:22:47;9.63;;;7.83;;
691;SDS011;328;50.086;8.576;2022-08-19T05:25:17;9.00;;;8.10;;
691;SDS011;328;50.086;8.576;2022-08-19T05:27:46;8.70;;;7.90;;
691;SDS011;328;50.086;8.576;2022-08-19T05:30:16;10.50;;;8.93;;
691;SDS011;328;50.086;8.576;2022-08-19T05:32:58;8.93;;;8.03;;
691;SDS011;328;50.086;8.576;2022-08-19T05:35:26;10.87;;;9.77;;
691;SDS011;328;50.086;8.576;2022-08-19T05:37:59;9.13;;;8.23;;
691;SDS011;328;50.086;8.576;2022-08-19T05:40:27;9.27;;;8.37;;
691;SDS011;328;50.086;8.576;2022-08-19T05:42:55;11.30;;;8.87;;
691;SDS011;328;50.086;8.576;2022-08-19T05:45:24;8.80;;;7.90;;
691;SDS011;328;50.086;8.576;2022-08-19T05:47:51;9.40;;;8.33;;
691;SDS011;328;50.086;8.576;2022-08-19T05:50:19;9.00;;;8.10;;
691;SDS011;328;50.086;8.576;2022-08-19T05:52:46;10.50;;;8.53;;
691;SDS011;328;50.086;8.576;2022-08-19T05:55:15;10.67;;;9.57;;
691;SDS011;328;50.086;8.576;2022-08-19T05:57:42;12.27;;;9.10;;
691;SDS011;328;50.086;8.576;2022-08-19T06:00:10;8.97;;;8.00;;
691;SDS011;328;50.086;8.576;2022-08-19T06:02:40;9.47;;;8.27;;
691;SDS011;328;50.086;8.576;2022-08-19T06:05:09;10.30;;;9.17;;
691;SDS011;328;50.086;8.576;2022-08-19T06:07:37;9.40;;;7.97;;
691;SDS011;328;50.086;8.576;2022-08-19T06:10:07;8.63;;;7.50;;
691;SDS011;328;50.086;8.576;2022-08-19T06:12:36;8.50;;;7.70;;
691;SDS011;328;50.086;8.576;2022-08-19T06:15:05;8.83;;;8.00;;
691;SDS011;328;50.086;8.576;2022-08-19T06:17:35;8.30;;;7.17;;
691;SDS011;328;50.086;8.576;2022-08-19T06:20:05;9.60;;;8.50;;
691;SDS011;328;50.086;8.576;2022-08-19T06:22:36;9.27;;;8.27;;
691;SDS011;328;50.086;8.576;2022-08-19T06:25:05;9.53;;;8.63;;
691;SDS011;328;50.086;8.576;2022-08-19T06:27:35;10.07;;;9.07;;
691;SDS011;328;50.086;8.576;2022-08-19T06:30:10;9.30;;;8.40;;
691;SDS011;328;50.086;8.576;2022-08-19T06:32:38;9.57;;;7.80;;
691;SDS011;328;50.086;8.576;2022-08-19T06:35:09;7.70;;;6.50;;
691;SDS011;328;50.086;8.576;2022-08-19T06:37:38;7.47;;;5.97;;
691;SDS011;328;50.086;8.576;2022-08-19T06:40:09;7.20;;;5.13;;
691;SDS011;328;50.086;8.576;2022-08-19T06:42:38;6.23;;;5.60;;
691;SDS011;328;50.086;8.576;2022-08-19T06:45:19;4.30;;;3.90;;
691;SDS011;328;50.086;8.576;2022-08-19T06:47:50;3.40;;;2.70;;
691;SDS011;328;50.086;8.576;2022-08-19T06:50:23;3.27;;;2.97;;
691;SDS011;328;50.086;8.576;2022-08-19T06:52:51;3.60;;;3.03;;
691;SDS011;328;50.086;8.576;2022-08-19T06:55:19;3.67;;;3.10;;
691;SDS011;328;50.086;8.576;2022-08-19T06:57:46;3.63;;;3.10;;
691;SDS011;328;50.086;8.576;2022-08-19T07:00:14;3.90;;;3.43;;
691;SDS011;328;50.086;8.576;2022-08-19T07:02:42;3.33;;;2.90;;
691;SDS011;328;50.086;8.576;2022-08-19T07:05:18;4.37;;;3.77;;
691;SDS011;328;50.086;8.576;2022-08-19T07:07:47;5.30;;;4.13;;
691;SDS011;328;50.086;8.576;2022-08-19T07:10:16;6.07;;;4.73;;
691;SDS011;328;50.086;8.576;2022-08-19T07:12:43;5.47;;;4.97;;
691;SDS011;328;50.086;8.576;2022-08-19T07:15:11;5.87;;;4.97;;
691;SDS011;328;50.086;8.576;2022-08-19T07:17:39;7.90;;;5.87;;
691;SDS011;328;50.086;8.576;2022-08-19T07:20:08;6.30;;;5.70;;
691;SDS011;328;50.086;8.576;2022-08-19T07:22:37;6.23;;;5.63;;
691;SDS011;328;50.086;8.576;2022-08-19T07:25:07;4.93;;;3.80;;
691;SDS011;328;50.086;8.576;2022-08-19T07:27:35;5.03;;;4.63;;
691;SDS011;328;50.086;8.576;2022-08-19T07:30:19;5.83;;;4.43;;
691;SDS011;328;50.086;8.576;2022-08-19T07:32:51;6.40;;;5.07;;
691;SDS011;328;50.086;8.576;2022-08-19T07:35:19;5.70;;;5.10;;
691;SDS011;328;50.086;8.576;2022-08-19T07:37:46;4.17;;;3.37;;
691;SDS011;328;50.086;8.576;2022-08-19T07:40:15;3.53;;;3.20;;
691;SDS011;328;50.086;8.576;2022-08-19T07:42:43;5.27;;;3.47;;
691;SDS011;328;50.086;8.576;2022-08-19T07:45:10;3.80;;;3.43;;
691;SDS011;328;50.086;8.576;2022-08-19T07:47:38;2.90;;;2.63;;
691;SDS011;328;50.086;8.576;2022-08-19T07:50:16;3.47;;;3.13;;
691;SDS011;328;50.086;8.576;2022-08-19T07:52:46;3.07;;;2.77;;
691;SDS011;328;50.086;8.576;2022-08-19T07:55:17;4.53;;;3.97;;
691;SDS011;328;50.086;8.576;2022-08-19T07:58:07;4.97;;;3.50;;
691;SDS011;328;50.086;8.576;2022-08-19T08:00:35;3.47;;;2.73;;
691;SDS011;328;50.086;8.576;2022-08-19T08:03:02;4.20;;;3.80;;
691;SDS011;328;50.086;8.576;2022-08-19T08:05:30;3.83;;;3.10;;
691;SDS011;328;50.086;8.576;2022-08-19T08:08:15;4.00;;;3.70;;
691;SDS011;328;50.086;8.576;2022-08-19T08:11:02;5.13;;;3.60;;
691;SDS011;328;50.086;8.576;2022-08-19T08:13:33;3.80;;;3.50;;
691;SDS011;328;50.086;8.576;2022-08-19T08:16:01;3.73;;;3.33;;
691;SDS011;328;50.086;8.576;2022-08-19T08:18:29;4.70;;;3.20;;
691;SDS011;328;50.086;8.576;2022-08-19T08:20:57;3.90;;;3.60;;
691;SDS011;328;50.086;8.576;2022-08-19T08:23:25;4.10;;;3.37;;
691;SDS011;328;50.086;8.576;2022-08-19T08:25:54;5.93;;;4.00;;
691;SDS011;328;50.086;8.576;2022-08-19T08:28:24;3.90;;;3.20;;
691;SDS011;328;50.086;8.576;2022-08-19T08:30:55;4.30;;;3.60;;
691;SDS011;328;50.086;8.576;2022-08-19T08:33:24;4.40;;;4.10;;
691;SDS011;328;50.086;8.576;2022-08-19T08:36:00;6.13;;;4.37;;
691;SDS011;328;50.086;8.576;2022-08-19T08:38:29;4.90;;;4.30;;
691;SDS011;328;50.086;8.576;2022-08-19T08:41:05;5.90;;;4.10;;
691;SDS011;328;50.086;8.576;2022-08-19T08:43:40;5.90;;;4.00;;
691;SDS011;328;50.086;8.576;2022-08-19T08:46:10;3.60;;;3.30;;
691;SDS011;328;50.086;8.576;2022-08-19T08:48:57;3.67;;;3.37;;
691;SDS011;328;50.086;8.576;2022-08-19T08:51:32;3.70;;;3.40;;
691;SDS011;328;50.086;8.576;2022-08-19T08:54:01;3.87;;;3.57;;
691;SDS011;328;50.086;8.576;2022-08-19T08:56:34;3.70;;;3.40;;
691;SDS011;328;50.086;8.576;2022-08-19T08:59:04;3.80;;;3.43;;
691;SDS011;328;50.086;8.576;2022-08-19T09:01:37;4.10;;;3.53;;
691;SDS011;328;50.086;8.576;2022-08-19T09:04:05;5.10;;;3.50;;
691;SDS011;328;50.086;8.576;2022-08-19T09:06:36;3.20;;;2.90;;
691;SDS011;328;50.086;8.576;2022-08-19T09:09:12;5.13;;;3.60;;
691;SDS011;328;50.086;8.576;2022-08-19T09:11:50;6.13;;;4.90;;
691;SDS011;328;50.086;8.576;2022-08-19T09:14:32;6.70;;;5.70;;
691;SDS011;328;50.086;8.576;2022-08-19T09:17:20;7.40;;;5.37;;
691;SDS011;328;50.086;8.576;2022-08-19T09:19:58;6.87;;;6.27;;
691;SDS011;328;50.086;8.576;2022-08-19T09:22:30;8.27;;;6.20;;
691;SDS011;328;50.086;8.576;2022-08-19T09:24:58;6.13;;;5.63;;
691;SDS011;328;50.086;8.576;2022-08-19T09:27:26;6.27;;;5.67;;
691;SDS011;328;50.086;8.576;2022-08-19T09:30:11;6.53;;;5.83;;
691;SDS011;328;50.086;8.576;2022-08-19T09:32:41;7.00;;;5.30;;
691;SDS011;328;50.086;8.576;2022-08-19T09:35:09;6.30;;;5.23;;
691;SDS011;328;50.086;8.576;2022-08-19T09:37:37;6.70;;;5.93;;
691;SDS011;328;50.086;8.576;2022-08-19T09:40:06;8.50;;;5.17;;
691;SDS011;328;50.086;8.576;2022-08-19T09:42:37;6.27;;;5.13;;
691;SDS011;328;50.086;8.576;2022-08-19T09:45:17;5.77;;;5.27;;
691;SDS011;328;50.086;8.576;2022-08-19T09:47:46;6.20;;;5.37;;
691;SDS011;328;50.086;8.576;2022-08-19T09:50:15;6.30;;;5.70;;
691;SDS011;328;50.086;8.576;2022-08-19T09:52:44;6.40;;;5.73;;
691;SDS011;328;50.086;8.576;2022-08-19T09:55:22;6.40;;;5.80;;
691;SDS011;328;50.086;8.576;2022-08-19T09:57:58;7.27;;;6.63;;
691;SDS011;328;50.086;8.576;2022-08-19T10:00:28;6.10;;;5.50;;
691;SDS011;328;50.086;8.576;2022-08-19T10:02:57;7.43;;;6.77;;
691;SDS011;328;50.086;8.576;2022-08-19T10:05:24;7.50;;;5.83;;
691;SDS011;328;50.086;8.576;2022-08-19T10:08:07;9.20;;;7.27;;
691;SDS011;328;50.086;8.576;2022-08-19T10:10:39;6.90;;;6.30;;
691;SDS011;328;50.086;8.576;2022-08-19T10:13:12;8.13;;;7.43;;
691;SDS011;328;50.086;8.576;2022-08-19T10:15:43;6.60;;;6.00;;
691;SDS011;328;50.086;8.576;2022-08-19T10:18:13;6.23;;;5.70;;
691;SDS011;328;50.086;8.576;2022-08-19T10:20:42;7.60;;;6.90;;
691;SDS011;328;50.086;8.576;2022-08-19T10:23:16;7.80;;;6.00;;
691;SDS011;328;50.086;8.576;2022-08-19T10:25:45;7.37;;;6.67;;
691;SDS011;328;50.086;8.576;2022-08-19T10:28:13;7.20;;;6.50;;
691;SDS011;328;50.086;8.576;2022-08-19T10:30:45;7.00;;;6.33;;
691;SDS011;328;50.086;8.576;2022-08-19T10:33:13;6.00;;;5.40;;
691;SDS011;328;50.086;8.576;2022-08-19T10:36:02;6.93;;;6.20;;
691;SDS011;328;50.086;8.576;2022-08-19T10:38:31;6.03;;;5.40;;
691;SDS011;328;50.086;8.576;2022-08-19T10:41:06;4.70;;;4.30;;
691;SDS011;328;50.086;8.576;2022-08-19T10:43:34;5.37;;;4.87;;
691;SDS011;328;50.086;8.576;2022-08-19T10:46:05;6.23;;;5.63;;
691;SDS011;328;50.086;8.576;2022-08-19T10:48:41;5.40;;;4.97;;
691;SDS011;328;50.086;8.576;2022-08-19T10:51:10;5.70;;;5.20;;
691;SDS011;328;50.086;8.576;2022-08-19T10:53:56;8.23;;;6.43;;
691;SDS011;328;50.086;8.576;2022-08-19T10:56:24;7.10;;;6.00;;
691;SDS011;328;50.086;8.576;2022-08-19T10:59:09;8.27;;;7.47;;
691;SDS011;328;50.086;8.576;2022-08-19T11:01:41;7.53;;;6.93;;
691;SDS011;328;50.086;8.576;2022-08-19T11:04:09;7.07;;;6.47;;
691;SDS011;328;50.086;8.576;2022-08-19T11:06:39;7.87;;;7.07;;
691;SDS011;328;50.086;8.576;2022-08-19T11:09:08;8.23;;;7.40;;
691;SDS011;328;50.086;8.576;2022-08-19T11:11:37;8.20;;;7.40;;
691;SDS011;328;50.086;8.576;2022-08-19T11:14:07;8.57;;;7.80;;
691;SDS011;328;50.086;8.576;2022-08-19T11:16:35;9.47;;;8.50;;
691;SDS011;328;50.086;8.576;2022-08-19T11:19:06;8.57;;;7.87;;
691;SDS011;328;50.086;8.576;2022-08-19T11:21:36;8.73;;;7.13;;
691;SDS011;328;50.086;8.576;2022-08-19T11:24:06;8.47;;;7.67;;
691;SDS011;328;50.086;8.576;2022-08-19T11:26:35;7.67;;;6.97;;
691;SDS011;328;50.086;8.576;2022-08-19T11:29:04;8.27;;;7.57;;
691;SDS011;328;50.086;8.576;2022-08-19T11:31:37;12.13;;;8.30;;
691;SDS011;328;50.086;8.576;2022-08-19T11:34:08;10.53;;;7.47;;
691;SDS011;328;50.086;8.576;2022-08-19T11:36:38;8.67;;;7.87;;
691;SDS011;328;50.086;8.576;2022-08-19T11:39:07;8.47;;;7.57;;
691;SDS011;328;50.086;8.576;2022-08-19T11:41:35;9.33;;;8.17;;
691;SDS011;328;50.086;8.576;2022-08-19T11:44:03;9.70;;;8.70;;
691;SDS011;328;50.086;8.576;2022-08-19T11:46:30;9.23;;;8.37;;
691;SDS011;328;50.086;8.576;2022-08-19T11:48:58;8.30;;;7.50;;
691;SDS011;328;50.086;8.576;2022-08-19T11:51:29;8.47;;;7.73;;
691;SDS011;328;50.086;8.576;2022-08-19T11:53:58;9.30;;;7.50;;
691;SDS011;328;50.086;8.576;2022-08-19T11:56:26;8.00;;;7.23;;
691;SDS011;328;50.086;8.576;2022-08-19T11:58:54;7.00;;;6.40;;
691;SDS011;328;50.086;8.576;2022-08-19T12:01:24;7.47;;;6.87;;
691;SDS011;328;50.086;8.576;2022-08-19T12:03:53;6.50;;;5.90;;
691;SDS011;328;50.086;8.576;2022-08-19T12:06:24;7.37;;;6.67;;
691;SDS011;328;50.086;8.576;2022-08-19T12:08:54;7.77;;;7.00;;
691;SDS011;328;50.086;8.576;2022-08-19T12:11:23;7.17;;;6.30;;
691;SDS011;328;50.086;8.576;2022-08-19T12:13:51;6.17;;;5.50;;
691;SDS011;328;50.086;8.576;2022-08-19T12:16:20;5.00;;;4.60;;
691;SDS011;328;50.086;8.576;2022-08-19T12:18:50;6.50;;;5.90;;
691;SDS011;328;50.086;8.576;2022-08-19T12:21:19;7.37;;;6.07;;
691;SDS011;328;50.086;8.576;2022-08-19T12:23:48;5.80;;;4.93;;
691;SDS011;328;50.086;8.576;2022-08-19T12:26:22;5.20;;;4.80;;
691;SDS011;328;50.086;8.576;2022-08-19T12:28:50;5.00;;;4.60;;
691;SDS011;328;50.086;8.576;2022-08-19T12:31:18;5.30;;;4.80;;
691;SDS011;328;50.086;8.576;2022-08-19T12:33:46;4.50;;;4.10;;
691;SDS011;328;50.086;8.576;2022-08-19T12:36:14;4.40;;;4.00;;
691;SDS011;328;50.086;8.576;2022-08-19T12:38:44;5.00;;;4.60;;
691;SDS011;328;50.086;8.576;2022-08-19T12:41:13;4.20;;;3.80;;
691;SDS011;328;50.086;8.576;2022-08-19T12:43:45;4.27;;;3.97;;
691;SDS011;328;50.086;8.576;2022-08-19T12:46:15;5.63;;;4.47;;
691;SDS011;328;50.086;8.576;2022-08-19T12:48:43;4.60;;;3.90;;
691;SDS011;328;50.086;8.576;2022-08-19T12:51:12;5.40;;;4.90;;
691;SDS011;328;50.086;8.576;2022-08-19T12:53:41;5.30;;;4.80;;
691;SDS011;328;50.086;8.576;2022-08-19T12:56:09;5.63;;;4.63;;
691;SDS011;328;50.086;8.576;2022-08-19T12:58:38;4.57;;;4.17;;
691;SDS011;328;50.086;8.576;2022-08-19T13:01:15;4.40;;;4.00;;
691;SDS011;328;50.086;8.576;2022-08-19T13:03:48;4.47;;;4.07;;
691;SDS011;328;50.086;8.576;2022-08-19T13:06:18;4.63;;;3.87;;
691;SDS011;328;50.086;8.576;2022-08-19T13:08:45;4.07;;;3.77;;
691;SDS011;328;50.086;8.576;2022-08-19T13:11:13;4.40;;;4.00;;
691;SDS011;328;50.086;8.576;2022-08-19T13:13:44;4.20;;;3.90;;
691;SDS011;328;50.086;8.576;2022-08-19T13:16:13;3.73;;;3.43;;
691;SDS011;328;50.086;8.576;2022-08-19T13:18:44;3.23;;;2.93;;
691;SDS011;328;50.086;8.576;2022-08-19T13:21:13;3.47;;;3.17;;
691;SDS011;328;50.086;8.576;2022-08-19T13:23:41;3.47;;;3.17;;
691;SDS011;328;50.086;8.576;2022-08-19T13:26:09;3.37;;;3.17;;
691;SDS011;328;50.086;8.576;2022-08-19T13:28:38;2.97;;;2.77;;
691;SDS011;328;50.086;8.576;2022-08-19T13:31:25;3.93;;;3.50;;
691;SDS011;328;50.086;8.576;2022-08-19T13:34:12;5.20;;;3.13;;
691;SDS011;328;50.086;8.576;2022-08-19T13:36:40;3.40;;;3.10;;
691;SDS011;328;50.086;8.576;2022-08-19T13:39:08;3.33;;;2.70;;
691;SDS011;328;50.086;8.576;2022-08-19T13:41:36;3.23;;;2.93;;
691;SDS011;328;50.086;8.576;2022-08-19T13:44:04;2.50;;;2.30;;
691;SDS011;328;50.086;8.576;2022-08-19T13:46:34;3.43;;;3.13;;
691;SDS011;328;50.086;8.576;2022-08-19T13:49:01;3.90;;;3.60;;
691;SDS011;328;50.086;8.576;2022-08-19T13:51:30;4.00;;;2.70;;
691;SDS011;328;50.086;8.576;2022-08-19T13:53:57;2.50;;;2.30;;
691;SDS011;328;50.086;8.576;2022-08-19T13:56:25;4.50;;;2.73;;
691;SDS011;328;50.086;8.576;2022-08-19T13:58:53;3.17;;;2.87;;
691;SDS011;328;50.086;8.576;2022-08-19T14:01:25;3.30;;;3.00;;
691;SDS011;328;50.086;8.576;2022-08-19T14:03:54;3.47;;;3.10;;
691;SDS011;328;50.086;8.576;2022-08-19T14:06:22;3.10;;;2.90;;
691;SDS011;328;50.086;8.576;2022-08-19T14:08:51;3.80;;;3.50;;
691;SDS011;328;50.086;8.576;2022-08-19T14:11:19;3.70;;;3.30;;
691;SDS011;328;50.086;8.576;2022-08-19T14:13:49;4.13;;;2.80;;
691;SDS011;328;50.086;8.576;2022-08-19T14:16:16;3.23;;;3.00;;
691;SDS011;328;50.086;8.576;2022-08-19T14:18:44;3.07;;;2.70;;
691;SDS011;328;50.086;8.576;2022-08-19T14:21:15;2.70;;;2.50;;
691;SDS011;328;50.086;8.576;2022-08-19T14:23:44;2.90;;;2.70;;
691;SDS011;328;50.086;8.576;2022-08-19T14:26:12;3.33;;;2.93;;
691;SDS011;328;50.086;8.576;2022-08-19T14:28:42;3.27;;;2.97;;
691;SDS011;328;50.086;8.576;2022-08-19T14:31:10;2.63;;;2.43;;
691;SDS011;328;50.086;8.576;2022-08-19T14:33:38;3.17;;;2.90;;
691;SDS011;328;50.086;8.576;2022-08-19T14:36:06;3.50;;;3.10;;
691;SDS011;328;50.086;8.576;2022-08-19T14:38:35;3.37;;;3.07;;
691;SDS011;328;50.086;8.576;2022-08-19T14:41:07;3.43;;;3.13;;
691;SDS011;328;50.086;8.576;2022-08-19T14:43:36;3.30;;;3.00;;
691;SDS011;328;50.086;8.576;2022-08-19T14:46:04;2.63;;;2.40;;
691;SDS011;328;50.086;8.576;2022-08-19T14:48:32;3.00;;;2.80;;
691;SDS011;328;50.086;8.576;2022-08-19T14:51:00;3.50;;;3.20;;
691;SDS011;328;50.086;8.576;2022-08-19T14:53:28;4.40;;;3.73;;
691;SDS011;328;50.086;8.576;2022-08-19T14:55:57;3.90;;;3.17;;
691;SDS011;328;50.086;8.576;2022-08-19T14:58:24;3.60;;;3.30;;
691;SDS011;328;50.086;8.576;2022-08-19T15:00:55;3.43;;;3.13;;
691;SDS011;328;50.086;8.576;2022-08-19T15:03:23;3.67;;;3.37;;
691;SDS011;328;50.086;8.576;2022-08-19T15:05:52;4.50;;;4.10;;
691;SDS011;328;50.086;8.576;2022-08-19T15:08:19;3.10;;;2.90;;
691;SDS011;328;50.086;8.576;2022-08-19T15:10:51;3.23;;;2.93;;
691;SDS011;328;50.086;8.576;2022-08-19T15:13:20;3.80;;;3.47;;
691;SDS011;328;50.086;8.576;2022-08-19T15:15:47;3.03;;;2.83;;
691;SDS011;328;50.086;8.576;2022-08-19T15:18:15;3.87;;;2.77;;
691;SDS011;328;50.086;8.576;2022-08-19T15:20:43;2.57;;;2.37;;
691;SDS011;328;50.086;8.576;2022-08-19T15:23:12;2.70;;;2.50;;
691;SDS011;328;50.086;8.576;2022-08-19T15:25:40;3.93;;;3.40;;
691;SDS011;328;50.086;8.576;2022-08-19T15:28:08;3.77;;;2.90;;
691;SDS011;328;50.086;8.576;2022-08-19T15:30:39;2.90;;;2.60;;
691;SDS011;328;50.086;8.576;2022-08-19T15:33:07;3.10;;;2.90;;
691;SDS011;328;50.086;8.576;2022-08-19T15:35:34;2.17;;;2.00;;
691;SDS011;328;50.086;8.576;2022-08-19T15:38:02;2.37;;;1.90;;
691;SDS011;328;50.086;8.576;2022-08-19T15:40:31;2.60;;;2.13;;
691;SDS011;328;50.086;8.576;2022-08-19T15:42:59;4.97;;;2.73;;
691;SDS011;328;50.086;8.576;2022-08-19T15:45:27;4.20;;;2.90;;
691;SDS011;328;50.086;8.576;2022-08-19T15:47:59;3.10;;;2.83;;
691;SDS011;328;50.086;8.576;2022-08-19T15:50:28;3.50;;;3.10;;
691;SDS011;328;50.086;8.576;2022-08-19T15:52:57;3.13;;;2.93;;
691;SDS011;328;50.086;8.576;2022-08-19T15:55:29;3.13;;;2.50;;
691;SDS011;328;50.086;8.576;2022-08-19T15:58:00;2.77;;;2.57;;
691;SDS011;328;50.086;8.576;2022-08-19T16:00:54;3.53;;;2.80;;
691;SDS011;328;50.086;8.576;2022-08-19T16:03:42;2.93;;;2.73;;